KOMN

Ormond Beach Municipal Airport

Ormond Beach, Florida, USA
METAR KOMN 181450Z 33008KT 10SM SKC 01/M05 A3042
Observed Flight Rules
Jan-18 @ 14:50 UTC (49 minutes ago) Visual Flight Rules
Wind Visibility Clouds
330° at 8 knots 10 miles
  • Clear skies
Temperatures Readings
Current 1°C / 34°F
Dewpoint -5°C / 23°F
Humidity 65%
Altimeter 30.42" Hg
Pressure 1030 hPa
Elevation 9
METAR KOMN 181450Z 33008KT 10SM SKC 01/M05 A3042
Observed Flight Rules
Jan-18 @ 14:50 UTC
(49 minutes ago)
VFR
Wind Visibility
330° at 8 knots 10 miles
Clouds
  • Clear skies
Temperature Dewpoint
1°C / 34°F -5°C / 23°F
Humidity Altimeter Pressure
65% 30.42" Hg 1030 hPa